sensor_id;sensor_type;location;lat;lon;timestamp;P1;durP1;ratioP1;P2;durP2;ratioP2
74892;SDS011;63446;56.272;43.922;2023-02-15T00:00:31;28.10;;;9.40;;
74892;SDS011;63446;56.272;43.922;2023-02-15T00:02:57;30.02;;;10.02;;
74892;SDS011;63446;56.272;43.922;2023-02-15T00:05:23;27.35;;;10.52;;
74892;SDS011;63446;56.272;43.922;2023-02-15T00:07:49;30.45;;;10.15;;
74892;SDS011;63446;56.272;43.922;2023-02-15T00:10:15;26.00;;;9.23;;
74892;SDS011;63446;56.272;43.922;2023-02-15T00:12:42;23.25;;;9.45;;
74892;SDS011;63446;56.272;43.922;2023-02-15T00:15:08;27.90;;;9.75;;
74892;SDS011;63446;56.272;43.922;2023-02-15T00:17:34;28.65;;;9.10;;
74892;SDS011;63446;56.272;43.922;2023-02-15T00:20:00;28.47;;;10.20;;
74892;SDS011;63446;56.272;43.922;2023-02-15T00:22:26;31.25;;;10.02;;
74892;SDS011;63446;56.272;43.922;2023-02-15T00:24:52;24.33;;;9.70;;
74892;SDS011;63446;56.272;43.922;2023-02-15T00:27:18;29.30;;;9.45;;
74892;SDS011;63446;56.272;43.922;2023-02-15T00:29:43;31.97;;;9.63;;
74892;SDS011;63446;56.272;43.922;2023-02-15T00:32:09;24.45;;;8.70;;
74892;SDS011;63446;56.272;43.922;2023-02-15T00:34:35;25.10;;;9.00;;
74892;SDS011;63446;56.272;43.922;2023-02-15T00:37:01;28.55;;;9.02;;
74892;SDS011;63446;56.272;43.922;2023-02-15T00:39:27;30.60;;;9.15;;
74892;SDS011;63446;56.272;43.922;2023-02-15T00:41:54;25.00;;;8.70;;
74892;SDS011;63446;56.272;43.922;2023-02-15T00:44:20;24.60;;;8.27;;
74892;SDS011;63446;56.272;43.922;2023-02-15T00:46:46;26.05;;;8.02;;
74892;SDS011;63446;56.272;43.922;2023-02-15T00:49:11;26.10;;;9.87;;
74892;SDS011;63446;56.272;43.922;2023-02-15T00:51:37;25.10;;;9.05;;
74892;SDS011;63446;56.272;43.922;2023-02-15T00:54:04;25.35;;;8.88;;
74892;SDS011;63446;56.272;43.922;2023-02-15T00:56:30;23.67;;;8.53;;
74892;SDS011;63446;56.272;43.922;2023-02-15T00:58:56;24.33;;;8.18;;
74892;SDS011;63446;56.272;43.922;2023-02-15T01:01:22;26.30;;;9.02;;
74892;SDS011;63446;56.272;43.922;2023-02-15T01:03:50;24.58;;;8.57;;
74892;SDS011;63446;56.272;43.922;2023-02-15T01:06:16;21.65;;;8.27;;
74892;SDS011;63446;56.272;43.922;2023-02-15T01:08:43;28.27;;;9.02;;
74892;SDS011;63446;56.272;43.922;2023-02-15T01:11:11;23.10;;;9.18;;
74892;SDS011;63446;56.272;43.922;2023-02-15T01:13:39;24.43;;;8.57;;
74892;SDS011;63446;56.272;43.922;2023-02-15T01:16:06;19.75;;;7.65;;
74892;SDS011;63446;56.272;43.922;2023-02-15T01:18:32;20.60;;;7.65;;
74892;SDS011;63446;56.272;43.922;2023-02-15T01:21:07;23.83;;;8.27;;
74892;SDS011;63446;56.272;43.922;2023-02-15T01:23:35;25.23;;;8.32;;
74892;SDS011;63446;56.272;43.922;2023-02-15T01:26:01;23.80;;;8.53;;
74892;SDS011;63446;56.272;43.922;2023-02-15T01:28:27;22.85;;;8.10;;
74892;SDS011;63446;56.272;43.922;2023-02-15T01:30:54;23.33;;;8.10;;
74892;SDS011;63446;56.272;43.922;2023-02-15T01:33:19;23.53;;;8.00;;
74892;SDS011;63446;56.272;43.922;2023-02-15T01:35:45;24.13;;;8.15;;
74892;SDS011;63446;56.272;43.922;2023-02-15T01:38:11;27.67;;;8.95;;
74892;SDS011;63446;56.272;43.922;2023-02-15T01:40:38;24.83;;;8.03;;
74892;SDS011;63446;56.272;43.922;2023-02-15T01:43:11;23.65;;;9.10;;
74892;SDS011;63446;56.272;43.922;2023-02-15T01:45:37;23.90;;;9.00;;
74892;SDS011;63446;56.272;43.922;2023-02-15T01:50:58;22.83;;;8.25;;
74892;SDS011;63446;56.272;43.922;2023-02-15T01:53:30;24.87;;;8.50;;
74892;SDS011;63446;56.272;43.922;2023-02-15T01:58:39;24.42;;;8.13;;
74892;SDS011;63446;56.272;43.922;2023-02-15T02:01:05;25.40;;;8.05;;
74892;SDS011;63446;56.272;43.922;2023-02-15T02:04:10;26.87;;;8.87;;
74892;SDS011;63446;56.272;43.922;2023-02-15T02:06:29;19.98;;;7.72;;
74892;SDS011;63446;56.272;43.922;2023-02-15T02:08:56;23.75;;;8.65;;
74892;SDS011;63446;56.272;43.922;2023-02-15T02:11:23;26.45;;;9.02;;
74892;SDS011;63446;56.272;43.922;2023-02-15T02:13:50;21.50;;;7.38;;
74892;SDS011;63446;56.272;43.922;2023-02-15T02:22:28;24.90;;;8.18;;
74892;SDS011;63446;56.272;43.922;2023-02-15T02:30:49;22.27;;;8.03;;
74892;SDS011;63446;56.272;43.922;2023-02-15T02:33:31;22.23;;;7.95;;
74892;SDS011;63446;56.272;43.922;2023-02-15T02:36:16;23.52;;;8.65;;
74892;SDS011;63446;56.272;43.922;2023-02-15T02:41:30;23.02;;;8.00;;
74892;SDS011;63446;56.272;43.922;2023-02-15T02:49:14;24.73;;;8.57;;
74892;SDS011;63446;56.272;43.922;2023-02-15T02:51:40;21.80;;;7.85;;
74892;SDS011;63446;56.272;43.922;2023-02-15T02:54:08;24.55;;;8.52;;
74892;SDS011;63446;56.272;43.922;2023-02-15T02:56:41;25.30;;;9.23;;
74892;SDS011;63446;56.272;43.922;2023-02-15T02:59:19;28.05;;;9.10;;
74892;SDS011;63446;56.272;43.922;2023-02-15T03:01:51;21.02;;;7.88;;
74892;SDS011;63446;56.272;43.922;2023-02-15T03:04:29;25.63;;;8.37;;
74892;SDS011;63446;56.272;43.922;2023-02-15T03:07:00;23.73;;;7.45;;
74892;SDS011;63446;56.272;43.922;2023-02-15T03:09:29;22.42;;;7.78;;
74892;SDS011;63446;56.272;43.922;2023-02-15T03:12:00;22.77;;;7.80;;
74892;SDS011;63446;56.272;43.922;2023-02-15T03:14:32;20.80;;;7.63;;
74892;SDS011;63446;56.272;43.922;2023-02-15T03:16:58;24.53;;;8.43;;
74892;SDS011;63446;56.272;43.922;2023-02-15T03:19:25;21.92;;;8.63;;
74892;SDS011;63446;56.272;43.922;2023-02-15T03:21:55;22.33;;;8.10;;
74892;SDS011;63446;56.272;43.922;2023-02-15T03:24:36;23.17;;;8.40;;
74892;SDS011;63446;56.272;43.922;2023-02-15T03:27:10;20.65;;;7.30;;
74892;SDS011;63446;56.272;43.922;2023-02-15T03:29:46;16.85;;;6.10;;
74892;SDS011;63446;56.272;43.922;2023-02-15T03:32:23;22.08;;;7.07;;
74892;SDS011;63446;56.272;43.922;2023-02-15T03:34:51;23.05;;;8.05;;
74892;SDS011;63446;56.272;43.922;2023-02-15T03:43:11;20.00;;;8.43;;
74892;SDS011;63446;56.272;43.922;2023-02-15T03:45:45;22.98;;;8.85;;
74892;SDS011;63446;56.272;43.922;2023-02-15T03:48:24;26.50;;;9.17;;
74892;SDS011;63446;56.272;43.922;2023-02-15T03:50:57;24.00;;;9.20;;
74892;SDS011;63446;56.272;43.922;2023-02-15T03:53:45;26.23;;;9.40;;
74892;SDS011;63446;56.272;43.922;2023-02-15T03:56:14;26.90;;;9.52;;
74892;SDS011;63446;56.272;43.922;2023-02-15T03:58:40;25.35;;;8.65;;
74892;SDS011;63446;56.272;43.922;2023-02-15T04:01:27;22.60;;;8.97;;
74892;SDS011;63446;56.272;43.922;2023-02-15T04:04:21;25.70;;;8.48;;
74892;SDS011;63446;56.272;43.922;2023-02-15T04:06:53;22.75;;;9.35;;
74892;SDS011;63446;56.272;43.922;2023-02-15T04:09:19;26.08;;;9.27;;
74892;SDS011;63446;56.272;43.922;2023-02-15T04:12:03;23.88;;;9.18;;
74892;SDS011;63446;56.272;43.922;2023-02-15T04:14:29;25.35;;;9.68;;
74892;SDS011;63446;56.272;43.922;2023-02-15T04:17:14;23.15;;;8.75;;
74892;SDS011;63446;56.272;43.922;2023-02-15T04:19:40;26.63;;;8.83;;
74892;SDS011;63446;56.272;43.922;2023-02-15T04:22:24;23.77;;;8.93;;
74892;SDS011;63446;56.272;43.922;2023-02-15T04:25:10;25.27;;;9.02;;
74892;SDS011;63446;56.272;43.922;2023-02-15T04:27:42;21.75;;;9.05;;
74892;SDS011;63446;56.272;43.922;2023-02-15T04:30:09;25.50;;;8.55;;
74892;SDS011;63446;56.272;43.922;2023-02-15T04:32:36;25.57;;;8.67;;
74892;SDS011;63446;56.272;43.922;2023-02-15T04:35:02;24.27;;;8.98;;
74892;SDS011;63446;56.272;43.922;2023-02-15T04:37:29;21.35;;;9.10;;
74892;SDS011;63446;56.272;43.922;2023-02-15T04:39:54;25.83;;;8.77;;
74892;SDS011;63446;56.272;43.922;2023-02-15T04:42:20;29.13;;;9.53;;
74892;SDS011;63446;56.272;43.922;2023-02-15T04:44:46;24.23;;;8.98;;
74892;SDS011;63446;56.272;43.922;2023-02-15T04:47:12;22.93;;;8.27;;
74892;SDS011;63446;56.272;43.922;2023-02-15T04:49:38;23.92;;;8.32;;
74892;SDS011;63446;56.272;43.922;2023-02-15T04:52:03;22.23;;;8.37;;
74892;SDS011;63446;56.272;43.922;2023-02-15T04:54:30;21.48;;;8.43;;
74892;SDS011;63446;56.272;43.922;2023-02-15T04:56:55;25.75;;;8.48;;
74892;SDS011;63446;56.272;43.922;2023-02-15T04:59:22;23.40;;;8.40;;
74892;SDS011;63446;56.272;43.922;2023-02-15T05:01:47;24.67;;;9.02;;
74892;SDS011;63446;56.272;43.922;2023-02-15T05:04:13;21.02;;;8.02;;
74892;SDS011;63446;56.272;43.922;2023-02-15T05:06:39;23.40;;;9.00;;
74892;SDS011;63446;56.272;43.922;2023-02-15T05:09:05;23.65;;;7.82;;
74892;SDS011;63446;56.272;43.922;2023-02-15T05:11:30;23.92;;;8.80;;
74892;SDS011;63446;56.272;43.922;2023-02-15T05:13:56;24.13;;;8.38;;
74892;SDS011;63446;56.272;43.922;2023-02-15T05:16:22;21.33;;;8.50;;
74892;SDS011;63446;56.272;43.922;2023-02-15T05:18:48;25.35;;;9.50;;
74892;SDS011;63446;56.272;43.922;2023-02-15T05:21:14;24.17;;;8.10;;
74892;SDS011;63446;56.272;43.922;2023-02-15T05:23:43;22.42;;;8.35;;
74892;SDS011;63446;56.272;43.922;2023-02-15T05:26:11;22.55;;;7.82;;
74892;SDS011;63446;56.272;43.922;2023-02-15T05:28:56;19.35;;;7.60;;
74892;SDS011;63446;56.272;43.922;2023-02-15T05:31:22;22.93;;;7.63;;
74892;SDS011;63446;56.272;43.922;2023-02-15T05:33:48;22.40;;;7.82;;
74892;SDS011;63446;56.272;43.922;2023-02-15T05:36:13;21.23;;;8.00;;
74892;SDS011;63446;56.272;43.922;2023-02-15T05:38:39;23.97;;;8.60;;
74892;SDS011;63446;56.272;43.922;2023-02-15T05:41:05;20.30;;;8.20;;
74892;SDS011;63446;56.272;43.922;2023-02-15T05:43:34;24.00;;;8.33;;
74892;SDS011;63446;56.272;43.922;2023-02-15T05:46:00;26.63;;;8.60;;
74892;SDS011;63446;56.272;43.922;2023-02-15T05:48:27;22.33;;;8.80;;
74892;SDS011;63446;56.272;43.922;2023-02-15T05:50:56;24.20;;;8.95;;
74892;SDS011;63446;56.272;43.922;2023-02-15T05:53:28;27.23;;;9.65;;
74892;SDS011;63446;56.272;43.922;2023-02-15T05:55:55;25.07;;;8.73;;
74892;SDS011;63446;56.272;43.922;2023-02-15T05:58:25;24.77;;;8.60;;
74892;SDS011;63446;56.272;43.922;2023-02-15T06:00:52;20.35;;;8.80;;
74892;SDS011;63446;56.272;43.922;2023-02-15T06:03:19;22.95;;;8.18;;
74892;SDS011;63446;56.272;43.922;2023-02-15T06:05:45;24.13;;;9.20;;
74892;SDS011;63446;56.272;43.922;2023-02-15T06:08:11;24.73;;;8.67;;
74892;SDS011;63446;56.272;43.922;2023-02-15T06:10:37;20.42;;;8.27;;
74892;SDS011;63446;56.272;43.922;2023-02-15T06:13:02;20.87;;;9.20;;
74892;SDS011;63446;56.272;43.922;2023-02-15T06:15:28;19.25;;;8.40;;
74892;SDS011;63446;56.272;43.922;2023-02-15T06:17:56;19.75;;;8.65;;
74892;SDS011;63446;56.272;43.922;2023-02-15T06:20:21;22.20;;;8.47;;
74892;SDS011;63446;56.272;43.922;2023-02-15T06:22:48;18.40;;;7.43;;
74892;SDS011;63446;56.272;43.922;2023-02-15T06:25:13;22.58;;;8.90;;
74892;SDS011;63446;56.272;43.922;2023-02-15T06:27:42;16.77;;;6.43;;
74892;SDS011;63446;56.272;43.922;2023-02-15T06:30:09;16.45;;;7.18;;
74892;SDS011;63446;56.272;43.922;2023-02-15T06:32:36;21.55;;;7.95;;
74892;SDS011;63446;56.272;43.922;2023-02-15T06:35:02;18.23;;;7.70;;
74892;SDS011;63446;56.272;43.922;2023-02-15T06:37:28;16.57;;;6.80;;
74892;SDS011;63446;56.272;43.922;2023-02-15T06:39:54;17.52;;;5.88;;
74892;SDS011;63446;56.272;43.922;2023-02-15T06:42:21;22.85;;;8.10;;
74892;SDS011;63446;56.272;43.922;2023-02-15T06:44:47;22.20;;;7.83;;
74892;SDS011;63446;56.272;43.922;2023-02-15T06:47:14;19.77;;;7.85;;
74892;SDS011;63446;56.272;43.922;2023-02-15T06:49:39;21.33;;;8.18;;
74892;SDS011;63446;56.272;43.922;2023-02-15T06:52:05;23.42;;;8.13;;
74892;SDS011;63446;56.272;43.922;2023-02-15T06:54:31;18.77;;;7.87;;
74892;SDS011;63446;56.272;43.922;2023-02-15T06:56:58;25.38;;;8.48;;
74892;SDS011;63446;56.272;43.922;2023-02-15T06:59:24;21.25;;;8.95;;
74892;SDS011;63446;56.272;43.922;2023-02-15T07:01:50;18.50;;;7.63;;
74892;SDS011;63446;56.272;43.922;2023-02-15T07:04:15;20.65;;;7.88;;
74892;SDS011;63446;56.272;43.922;2023-02-15T07:06:41;19.83;;;8.30;;
74892;SDS011;63446;56.272;43.922;2023-02-15T07:09:07;20.48;;;8.13;;
74892;SDS011;63446;56.272;43.922;2023-02-15T07:11:33;19.90;;;8.47;;
74892;SDS011;63446;56.272;43.922;2023-02-15T07:14:17;21.38;;;8.23;;
74892;SDS011;63446;56.272;43.922;2023-02-15T07:16:43;22.88;;;8.55;;
74892;SDS011;63446;56.272;43.922;2023-02-15T07:19:10;20.23;;;8.13;;
74892;SDS011;63446;56.272;43.922;2023-02-15T07:21:35;21.23;;;8.05;;
74892;SDS011;63446;56.272;43.922;2023-02-15T07:24:02;18.52;;;7.18;;
74892;SDS011;63446;56.272;43.922;2023-02-15T07:26:31;18.60;;;8.10;;
74892;SDS011;63446;56.272;43.922;2023-02-15T07:28:58;20.60;;;8.40;;
74892;SDS011;63446;56.272;43.922;2023-02-15T07:31:24;17.98;;;7.55;;
74892;SDS011;63446;56.272;43.922;2023-02-15T07:33:50;18.77;;;7.97;;
74892;SDS011;63446;56.272;43.922;2023-02-15T07:36:16;21.15;;;8.30;;
74892;SDS011;63446;56.272;43.922;2023-02-15T07:38:41;18.15;;;7.88;;
74892;SDS011;63446;56.272;43.922;2023-02-15T07:41:09;18.75;;;7.78;;
74892;SDS011;63446;56.272;43.922;2023-02-15T07:43:38;17.73;;;6.97;;
74892;SDS011;63446;56.272;43.922;2023-02-15T07:46:07;18.07;;;7.53;;
74892;SDS011;63446;56.272;43.922;2023-02-15T07:48:40;16.83;;;7.38;;
74892;SDS011;63446;56.272;43.922;2023-02-15T07:51:07;17.20;;;7.47;;
74892;SDS011;63446;56.272;43.922;2023-02-15T07:53:35;16.83;;;6.85;;
74892;SDS011;63446;56.272;43.922;2023-02-15T07:56:03;16.90;;;7.68;;
74892;SDS011;63446;56.272;43.922;2023-02-15T07:58:31;16.97;;;7.00;;
74892;SDS011;63446;56.272;43.922;2023-02-15T08:01:24;16.15;;;6.78;;
74892;SDS011;63446;56.272;43.922;2023-02-15T08:03:51;18.08;;;7.43;;
74892;SDS011;63446;56.272;43.922;2023-02-15T08:06:18;15.88;;;6.72;;
74892;SDS011;63446;56.272;43.922;2023-02-15T08:08:44;15.68;;;6.50;;
74892;SDS011;63446;56.272;43.922;2023-02-15T08:11:17;19.40;;;7.50;;
74892;SDS011;63446;56.272;43.922;2023-02-15T08:13:52;16.13;;;6.78;;
74892;SDS011;63446;56.272;43.922;2023-02-15T08:19:01;18.90;;;7.70;;
74892;SDS011;63446;56.272;43.922;2023-02-15T08:21:30;18.75;;;8.10;;
74892;SDS011;63446;56.272;43.922;2023-02-15T08:23:57;17.35;;;7.45;;
74892;SDS011;63446;56.272;43.922;2023-02-15T08:26:25;17.65;;;6.70;;
74892;SDS011;63446;56.272;43.922;2023-02-15T08:28:51;16.58;;;6.72;;
74892;SDS011;63446;56.272;43.922;2023-02-15T08:31:18;14.33;;;5.97;;
74892;SDS011;63446;56.272;43.922;2023-02-15T08:33:46;16.20;;;7.57;;
74892;SDS011;63446;56.272;43.922;2023-02-15T08:36:15;15.60;;;7.20;;
74892;SDS011;63446;56.272;43.922;2023-02-15T08:38:44;15.40;;;6.40;;
74892;SDS011;63446;56.272;43.922;2023-02-15T08:41:11;12.32;;;5.35;;
74892;SDS011;63446;56.272;43.922;2023-02-15T08:43:38;16.83;;;6.77;;
74892;SDS011;63446;56.272;43.922;2023-02-15T08:46:05;15.00;;;5.28;;
74892;SDS011;63446;56.272;43.922;2023-02-15T08:48:32;15.10;;;6.00;;
74892;SDS011;63446;56.272;43.922;2023-02-15T08:50:58;17.52;;;6.07;;
74892;SDS011;63446;56.272;43.922;2023-02-15T08:53:23;14.23;;;6.50;;
74892;SDS011;63446;56.272;43.922;2023-02-15T08:55:56;14.95;;;6.50;;
74892;SDS011;63446;56.272;43.922;2023-02-15T08:58:22;16.53;;;6.30;;
74892;SDS011;63446;56.272;43.922;2023-02-15T09:00:49;17.75;;;6.22;;
74892;SDS011;63446;56.272;43.922;2023-02-15T09:03:16;17.58;;;6.93;;
74892;SDS011;63446;56.272;43.922;2023-02-15T09:05:42;17.00;;;6.82;;
74892;SDS011;63446;56.272;43.922;2023-02-15T09:08:08;18.20;;;6.97;;
74892;SDS011;63446;56.272;43.922;2023-02-15T09:10:34;15.37;;;6.57;;
74892;SDS011;63446;56.272;43.922;2023-02-15T09:13:00;16.00;;;5.97;;
74892;SDS011;63446;56.272;43.922;2023-02-15T09:15:26;15.60;;;6.88;;
74892;SDS011;63446;56.272;43.922;2023-02-15T09:17:53;17.90;;;6.77;;
74892;SDS011;63446;56.272;43.922;2023-02-15T09:20:19;16.17;;;6.78;;
74892;SDS011;63446;56.272;43.922;2023-02-15T09:22:45;17.02;;;7.05;;
74892;SDS011;63446;56.272;43.922;2023-02-15T09:25:11;17.63;;;7.50;;
74892;SDS011;63446;56.272;43.922;2023-02-15T09:27:39;15.55;;;6.80;;
74892;SDS011;63446;56.272;43.922;2023-02-15T09:30:06;14.95;;;6.05;;
74892;SDS011;63446;56.272;43.922;2023-02-15T09:32:32;15.70;;;6.83;;
74892;SDS011;63446;56.272;43.922;2023-02-15T09:34:58;15.48;;;6.10;;
74892;SDS011;63446;56.272;43.922;2023-02-15T09:40:44;15.40;;;6.30;;
74892;SDS011;63446;56.272;43.922;2023-02-15T09:43:42;17.40;;;7.18;;
74892;SDS011;63446;56.272;43.922;2023-02-15T09:46:16;15.95;;;5.97;;
74892;SDS011;63446;56.272;43.922;2023-02-15T09:48:46;14.13;;;6.03;;
74892;SDS011;63446;56.272;43.922;2023-02-15T09:51:38;16.58;;;6.90;;
74892;SDS011;63446;56.272;43.922;2023-02-15T09:54:48;15.60;;;6.43;;
74892;SDS011;63446;56.272;43.922;2023-02-15T10:11:20;13.70;;;5.63;;
74892;SDS011;63446;56.272;43.922;2023-02-15T10:17:00;11.13;;;4.97;;
74892;SDS011;63446;56.272;43.922;2023-02-15T10:19:43;14.88;;;5.88;;
74892;SDS011;63446;56.272;43.922;2023-02-15T10:25:46;18.70;;;7.05;;
74892;SDS011;63446;56.272;43.922;2023-02-15T10:28:05;16.35;;;7.07;;
74892;SDS011;63446;56.272;43.922;2023-02-15T10:42:02;13.20;;;5.80;;
74892;SDS011;63446;56.272;43.922;2023-02-15T10:44:35;14.60;;;5.70;;
74892;SDS011;63446;56.272;43.922;2023-02-15T10:47:18;15.95;;;6.28;;
74892;SDS011;63446;56.272;43.922;2023-02-15T11:00:45;14.13;;;5.88;;
74892;SDS011;63446;56.272;43.922;2023-02-15T11:06:09;12.30;;;4.60;;
74892;SDS011;63446;56.272;43.922;2023-02-15T11:08:43;9.90;;;4.45;;
74892;SDS011;63446;56.272;43.922;2023-02-15T11:11:15;13.05;;;5.07;;
74892;SDS011;63446;56.272;43.922;2023-02-15T11:13:49;14.77;;;5.90;;
74892;SDS011;63446;56.272;43.922;2023-02-15T11:16:26;10.27;;;4.90;;
74892;SDS011;63446;56.272;43.922;2023-02-15T11:21:49;13.38;;;5.85;;
74892;SDS011;63446;56.272;43.922;2023-02-15T11:24:19;12.07;;;5.07;;
74892;SDS011;63446;56.272;43.922;2023-02-15T11:27:04;14.10;;;4.82;;
74892;SDS011;63446;56.272;43.922;2023-02-15T11:30:02;13.03;;;4.17;;
74892;SDS011;63446;56.272;43.922;2023-02-15T11:32:38;15.57;;;6.07;;
74892;SDS011;63446;56.272;43.922;2023-02-15T11:40:24;12.70;;;5.93;;
74892;SDS011;63446;56.272;43.922;2023-02-15T11:42:54;15.33;;;6.40;;
74892;SDS011;63446;56.272;43.922;2023-02-15T11:45:29;17.05;;;7.00;;
74892;SDS011;63446;56.272;43.922;2023-02-15T11:47:58;12.88;;;4.70;;
74892;SDS011;63446;56.272;43.922;2023-02-15T11:50:29;12.80;;;5.47;;
74892;SDS011;63446;56.272;43.922;2023-02-15T11:52:59;8.68;;;3.63;;
74892;SDS011;63446;56.272;43.922;2023-02-15T11:55:29;13.33;;;5.40;;
74892;SDS011;63446;56.272;43.922;2023-02-15T11:58:20;15.85;;;6.80;;
74892;SDS011;63446;56.272;43.922;2023-02-15T12:00:48;15.40;;;6.88;;
74892;SDS011;63446;56.272;43.922;2023-02-15T12:03:26;13.98;;;5.75;;
74892;SDS011;63446;56.272;43.922;2023-02-15T12:06:03;16.38;;;6.72;;
74892;SDS011;63446;56.272;43.922;2023-02-15T12:08:37;15.37;;;6.90;;
74892;SDS011;63446;56.272;43.922;2023-02-15T12:11:07;15.20;;;6.25;;
74892;SDS011;63446;56.272;43.922;2023-02-15T12:13:59;16.73;;;6.95;;
74892;SDS011;63446;56.272;43.922;2023-02-15T12:16:29;15.35;;;6.57;;
74892;SDS011;63446;56.272;43.922;2023-02-15T12:19:00;15.73;;;6.75;;
74892;SDS011;63446;56.272;43.922;2023-02-15T12:21:28;15.27;;;6.07;;
74892;SDS011;63446;56.272;43.922;2023-02-15T12:27:16;17.48;;;6.35;;
74892;SDS011;63446;56.272;43.922;2023-02-15T12:32:26;16.85;;;6.20;;
74892;SDS011;63446;56.272;43.922;2023-02-15T12:34:59;16.87;;;7.00;;
74892;SDS011;63446;56.272;43.922;2023-02-15T12:37:33;15.63;;;6.60;;
74892;SDS011;63446;56.272;43.922;2023-02-15T12:40:01;16.77;;;6.88;;
74892;SDS011;63446;56.272;43.922;2023-02-15T12:42:44;14.40;;;6.45;;
74892;SDS011;63446;56.272;43.922;2023-02-15T12:48:18;12.57;;;6.20;;
74892;SDS011;63446;56.272;43.922;2023-02-15T12:50:47;13.77;;;6.15;;
74892;SDS011;63446;56.272;43.922;2023-02-15T12:53:18;17.88;;;6.80;;
74892;SDS011;63446;56.272;43.922;2023-02-15T12:55:50;14.52;;;6.28;;
74892;SDS011;63446;56.272;43.922;2023-02-15T12:58:18;13.23;;;6.05;;
74892;SDS011;63446;56.272;43.922;2023-02-15T13:00:54;15.27;;;6.20;;
74892;SDS011;63446;56.272;43.922;2023-02-15T13:04:01;15.98;;;6.20;;
74892;SDS011;63446;56.272;43.922;2023-02-15T13:06:31;17.13;;;7.15;;
74892;SDS011;63446;56.272;43.922;2023-02-15T13:09:11;15.48;;;7.03;;
74892;SDS011;63446;56.272;43.922;2023-02-15T13:11:41;14.88;;;6.07;;
74892;SDS011;63446;56.272;43.922;2023-02-15T13:14:17;17.27;;;6.60;;
74892;SDS011;63446;56.272;43.922;2023-02-15T13:16:56;14.95;;;6.15;;
74892;SDS011;63446;56.272;43.922;2023-02-15T13:22:02;14.93;;;6.32;;
74892;SDS011;63446;56.272;43.922;2023-02-15T13:24:39;18.63;;;6.72;;
74892;SDS011;63446;56.272;43.922;2023-02-15T13:27:13;17.83;;;6.93;;
74892;SDS011;63446;56.272;43.922;2023-02-15T13:29:43;20.20;;;6.78;;
74892;SDS011;63446;56.272;43.922;2023-02-15T13:34:49;16.17;;;6.72;;
74892;SDS011;63446;56.272;43.922;2023-02-15T13:40:20;15.93;;;5.90;;
74892;SDS011;63446;56.272;43.922;2023-02-15T13:42:59;15.98;;;6.43;;
74892;SDS011;63446;56.272;43.922;2023-02-15T13:45:39;16.13;;;6.50;;
74892;SDS011;63446;56.272;43.922;2023-02-15T13:48:22;15.15;;;5.93;;
74892;SDS011;63446;56.272;43.922;2023-02-15T13:51:26;15.38;;;5.97;;
74892;SDS011;63446;56.272;43.922;2023-02-15T14:16:20;14.38;;;5.97;;
74892;SDS011;63446;56.272;43.922;2023-02-15T14:30:20;14.95;;;5.88;;
74892;SDS011;63446;56.272;43.922;2023-02-15T14:32:52;14.55;;;5.68;;
74892;SDS011;63446;56.272;43.922;2023-02-15T14:35:21;13.83;;;5.27;;
74892;SDS011;63446;56.272;43.922;2023-02-15T14:37:52;11.75;;;5.22;;
74892;SDS011;63446;56.272;43.922;2023-02-15T14:40:38;15.35;;;5.95;;
74892;SDS011;63446;56.272;43.922;2023-02-15T14:43:32;15.45;;;6.25;;
74892;SDS011;63446;56.272;43.922;2023-02-15T14:46:11;14.32;;;5.70;;
74892;SDS011;63446;56.272;43.922;2023-02-15T14:48:55;20.37;;;6.53;;
74892;SDS011;63446;56.272;43.922;2023-02-15T14:54:10;14.18;;;5.75;;
74892;SDS011;63446;56.272;43.922;2023-02-15T14:56:45;16.08;;;6.20;;
74892;SDS011;63446;56.272;43.922;2023-02-15T14:59:16;12.90;;;5.75;;
74892;SDS011;63446;56.272;43.922;2023-02-15T15:01:51;14.40;;;5.90;;
74892;SDS011;63446;56.272;43.922;2023-02-15T15:09:39;14.65;;;6.50;;
74892;SDS011;63446;56.272;43.922;2023-02-15T15:14:53;14.23;;;5.47;;
74892;SDS011;63446;56.272;43.922;2023-02-15T15:20:50;11.05;;;4.60;;
74892;SDS011;63446;56.272;43.922;2023-02-15T15:28:07;17.93;;;6.10;;
74892;SDS011;63446;56.272;43.922;2023-02-15T15:33:07;13.43;;;5.18;;
74892;SDS011;63446;56.272;43.922;2023-02-15T15:44:11;13.52;;;5.40;;
74892;SDS011;63446;56.272;43.922;2023-02-15T15:50:01;15.27;;;6.05;;
74892;SDS011;63446;56.272;43.922;2023-02-15T15:52:30;15.10;;;6.43;;
74892;SDS011;63446;56.272;43.922;2023-02-15T15:55:04;15.02;;;5.82;;
74892;SDS011;63446;56.272;43.922;2023-02-15T15:57:42;14.90;;;5.57;;
74892;SDS011;63446;56.272;43.922;2023-02-15T16:02:59;13.30;;;5.25;;
74892;SDS011;63446;56.272;43.922;2023-02-15T16:05:25;11.70;;;4.20;;
74892;SDS011;63446;56.272;43.922;2023-02-15T16:07:51;12.02;;;4.78;;
74892;SDS011;63446;56.272;43.922;2023-02-15T16:12:47;12.35;;;5.65;;
74892;SDS011;63446;56.272;43.922;2023-02-15T16:15:19;12.85;;;4.95;;
74892;SDS011;63446;56.272;43.922;2023-02-15T16:17:50;13.03;;;5.00;;
74892;SDS011;63446;56.272;43.922;2023-02-15T16:20:26;12.57;;;5.97;;
74892;SDS011;63446;56.272;43.922;2023-02-15T16:28:19;16.08;;;6.10;;
74892;SDS011;63446;56.272;43.922;2023-02-15T16:30:45;14.53;;;4.60;;
74892;SDS011;63446;56.272;43.922;2023-02-15T16:33:36;16.35;;;5.85;;
74892;SDS011;63446;56.272;43.922;2023-02-15T16:36:05;13.48;;;5.18;;
74892;SDS011;63446;56.272;43.922;2023-02-15T16:41:17;11.80;;;4.68;;
74892;SDS011;63446;56.272;43.922;2023-02-15T16:43:48;14.90;;;5.90;;
74892;SDS011;63446;56.272;43.922;2023-02-15T16:46:17;13.05;;;5.15;;
74892;SDS011;63446;56.272;43.922;2023-02-15T16:48:48;10.65;;;3.63;;
74892;SDS011;63446;56.272;43.922;2023-02-15T16:51:23;9.60;;;4.18;;
74892;SDS011;63446;56.272;43.922;2023-02-15T16:53:51;13.38;;;5.28;;
74892;SDS011;63446;56.272;43.922;2023-02-15T16:56:26;13.07;;;5.40;;
74892;SDS011;63446;56.272;43.922;2023-02-15T16:58:55;14.73;;;6.13;;
74892;SDS011;63446;56.272;43.922;2023-02-15T17:01:24;14.52;;;5.90;;
74892;SDS011;63446;56.272;43.922;2023-02-15T17:04:11;14.73;;;5.15;;
74892;SDS011;63446;56.272;43.922;2023-02-15T17:07:06;13.77;;;5.43;;
74892;SDS011;63446;56.272;43.922;2023-02-15T17:09:56;11.53;;;5.17;;
74892;SDS011;63446;56.272;43.922;2023-02-15T17:15:31;11.38;;;4.00;;
74892;SDS011;63446;56.272;43.922;2023-02-15T17:18:09;14.63;;;5.65;;
74892;SDS011;63446;56.272;43.922;2023-02-15T17:20:40;13.18;;;5.18;;
74892;SDS011;63446;56.272;43.922;2023-02-15T17:23:22;12.27;;;5.30;;
74892;SDS011;63446;56.272;43.922;2023-02-15T17:25:57;15.63;;;5.10;;
74892;SDS011;63446;56.272;43.922;2023-02-15T17:28:26;13.50;;;5.65;;
74892;SDS011;63446;56.272;43.922;2023-02-15T17:30:55;15.00;;;5.82;;
74892;SDS011;63446;56.272;43.922;2023-02-15T17:33:24;15.70;;;5.95;;
74892;SDS011;63446;56.272;43.922;2023-02-15T17:36:14;14.40;;;5.87;;
74892;SDS011;63446;56.272;43.922;2023-02-15T17:41:26;14.00;;;5.15;;
74892;SDS011;63446;56.272;43.922;2023-02-15T17:43:53;14.75;;;5.70;;
74892;SDS011;63446;56.272;43.922;2023-02-15T17:46:19;13.30;;;5.50;;
74892;SDS011;63446;56.272;43.922;2023-02-15T17:48:48;14.52;;;5.78;;
74892;SDS011;63446;56.272;43.922;2023-02-15T17:51:16;14.50;;;5.18;;
74892;SDS011;63446;56.272;43.922;2023-02-15T17:53:44;16.05;;;6.05;;
74892;SDS011;63446;56.272;43.922;2023-02-15T17:56:35;11.18;;;4.95;;